Terminal Aerodrome Forecast
Issued by NWS

Home | Current Version | Previous Version | Text Only | Print | Product List | Glossary On
Versions: 1 2 3 4 5 6 7 8 9 10 11 12 13 14 15
000
FTUS44 KEPZ 290500
TAFLRU
TAF
KLRU 290533Z 2906/3006 VRB06KT P6SM VCTS SCT080CB BKN250
     FM290800 VRB04KT P6SM SCT090 SCT250
     FM292100 VRB06KT P6SM VCTS SCT080CB SCT120
     FM300400 23005KT P6SM SCT100 SCT250=

USA.gov is the U.S. government's official web portal to all federal, state and local government web resources and services.